createdAt,value
2022-10-01T00:05:14.005Z,1464
2022-10-01T00:10:32.779Z,1477
2022-10-01T00:15:51.248Z,1491
2022-10-01T00:21:09.780Z,1495
2022-10-01T00:26:28.251Z,1500
2022-10-01T00:31:47.086Z,1516
2022-10-01T00:37:05.382Z,1506
2022-10-01T00:42:23.650Z,1510
2022-10-01T00:47:42.094Z,1512
2022-10-01T00:53:00.862Z,1512
2022-10-01T00:58:18.851Z,1516
2022-10-01T01:03:37.023Z,1521
2022-10-01T01:08:55.524Z,1511
2022-10-01T01:14:14.011Z,1511
2022-10-01T01:19:32.753Z,1493
2022-10-01T01:24:51.511Z,1492
2022-10-01T01:30:10.325Z,1486
2022-10-01T01:35:28.486Z,1471
2022-10-01T01:40:47.259Z,1472
2022-10-01T01:46:06.153Z,1478
2022-10-01T01:51:24.758Z,1484
2022-10-01T01:56:43.268Z,1495
2022-10-01T02:02:01.927Z,1482
2022-10-01T02:07:20.278Z,1479
2022-10-01T02:12:39.053Z,1477
2022-10-01T02:17:57.837Z,1478
2022-10-01T02:23:16.765Z,1474
2022-10-01T02:28:35.269Z,1463
2022-10-01T02:33:38.419Z,1470
2022-10-01T02:38:56.898Z,1451
2022-10-01T02:44:15.647Z,1448
2022-10-01T02:49:34.186Z,1438
2022-10-01T02:54:52.349Z,1434
2022-10-01T03:00:10.856Z,1430
2022-10-01T03:05:29.377Z,1444
2022-10-01T03:10:47.607Z,1438
2022-10-01T03:16:06.376Z,1432
2022-10-01T03:21:24.642Z,1425
2022-10-01T03:26:43.149Z,1426
2022-10-01T03:32:01.614Z,1430
2022-10-01T03:37:20.138Z,1430
2022-10-01T03:42:38.327Z,1428
2022-10-01T03:47:56.829Z,1425
2022-10-01T03:53:15.318Z,1429
2022-10-01T03:58:33.508Z,1419
2022-10-01T04:03:52.270Z,1411
2022-10-01T04:09:11.052Z,1409
2022-10-01T04:14:29.543Z,1419
2022-10-01T04:19:47.995Z,1422
2022-10-01T04:25:06.515Z,1421
2022-10-01T04:30:24.794Z,1420
2022-10-01T04:35:43.283Z,1416
2022-10-01T04:41:01.816Z,1423
2022-10-01T04:46:20.460Z,1432
2022-10-01T04:51:38.713Z,1435
2022-10-01T04:56:57.179Z,1439
2022-10-01T05:02:15.702Z,1431
2022-10-01T05:07:33.629Z,1431
2022-10-01T05:12:52.414Z,1436
2022-10-01T05:18:10.877Z,1436
2022-10-01T05:23:29.085Z,1431
2022-10-01T05:28:47.603Z,1432
2022-10-01T05:34:06.076Z,1428
2022-10-01T05:39:24.844Z,1440
2022-10-01T05:44:43.363Z,1432
2022-10-01T05:50:02.164Z,1437
2022-10-01T05:55:20.632Z,1444
2022-10-01T06:00:39.139Z,1461
2022-10-01T06:05:57.890Z,1460
2022-10-01T06:11:16.367Z,1500
2022-10-01T06:16:35.212Z,1526
2022-10-01T06:21:53.575Z,1529
2022-10-01T06:27:12.083Z,1174
2022-10-01T06:32:34.757Z,1099
2022-10-01T06:37:53.651Z,1157
2022-10-01T06:43:12.445Z,978
2022-10-01T06:48:31.215Z,1121
2022-10-01T06:53:49.439Z,1144
2022-10-01T06:59:07.958Z,1101
2022-10-01T07:04:26.424Z,1109
2022-10-01T07:09:45.189Z,1109
2022-10-01T07:15:03.720Z,1085
2022-10-01T07:20:22.488Z,1090
2022-10-01T07:25:40.373Z,1056
2022-10-01T07:30:58.893Z,1093
2022-10-01T07:36:16.816Z,1092
2022-10-01T07:41:35.377Z,1031
2022-10-01T07:46:54.425Z,981
2022-10-01T07:52:13.550Z,975
2022-10-01T07:57:32.078Z,982
2022-10-01T08:02:50.869Z,1081
2022-10-01T08:08:09.069Z,1025
2022-10-01T08:13:27.529Z,1004
2022-10-01T08:18:46.316Z,791
2022-10-01T08:24:04.800Z,736
2022-10-01T08:29:23.260Z,754
2022-10-01T08:34:41.185Z,652
2022-10-01T08:39:59.694Z,665
2022-10-01T08:45:17.867Z,708
2022-10-01T08:50:36.347Z,722
2022-10-01T08:55:55.148Z,714
2022-10-01T09:01:13.639Z,674
2022-10-01T09:06:32.323Z,685
2022-10-01T09:11:50.811Z,747
2022-10-01T09:17:09.271Z,765
2022-10-01T09:22:28.047Z,779
2022-10-01T09:27:46.902Z,940
2022-10-01T09:33:05.113Z,1002
2022-10-01T09:38:23.580Z,1038
2022-10-01T09:43:42.091Z,964
2022-10-01T09:49:00.015Z,857
2022-10-01T09:54:02.843Z,819
2022-10-01T09:59:21.359Z,702
2022-10-01T10:04:39.835Z,646
2022-10-01T10:09:58.313Z,639
2022-10-01T10:15:16.791Z,605
2022-10-01T10:20:34.692Z,593
2022-10-01T10:25:52.900Z,570
2022-10-01T10:31:10.863Z,569
2022-10-01T10:36:29.544Z,548
2022-10-01T10:41:48.320Z,548
2022-10-01T10:47:06.798Z,565
2022-10-01T10:52:25.234Z,546
2022-10-01T10:57:43.714Z,534
2022-10-01T11:03:02.210Z,528
2022-10-01T11:08:20.114Z,530
2022-10-01T11:13:38.873Z,522
2022-10-01T11:18:57.093Z,521
2022-10-01T11:24:15.262Z,518
2022-10-01T11:29:34.052Z,508
2022-10-01T11:34:52.773Z,503
2022-10-01T11:40:11.516Z,501
2022-10-01T11:45:29.998Z,509
2022-10-01T11:50:48.746Z,508
2022-10-01T11:56:07.463Z,501
2022-10-01T12:01:25.659Z,489
2022-10-01T12:06:43.875Z,475
2022-10-01T12:12:01.763Z,469
2022-10-01T12:17:20.244Z,462
2022-10-01T12:22:39.018Z,450
2022-10-01T12:27:57.832Z,448
2022-10-01T12:33:16.124Z,443
2022-10-01T12:38:34.667Z,458
2022-10-01T12:43:52.662Z,518
2022-10-01T12:49:11.416Z,496
2022-10-01T12:54:29.607Z,554
2022-10-01T12:59:48.328Z,572
2022-10-01T13:05:06.780Z,538
2022-10-01T13:10:25.307Z,492
2022-10-01T13:15:43.549Z,472
2022-10-01T13:21:01.636Z,459
2022-10-01T13:26:20.122Z,458
2022-10-01T13:31:38.673Z,470
2022-10-01T13:36:57.198Z,511
2022-10-01T13:42:16.010Z,512
2022-10-01T13:47:34.884Z,542
2022-10-01T13:52:53.675Z,567
2022-10-01T13:58:12.433Z,567
2022-10-01T14:03:31.168Z,559
2022-10-01T14:08:49.655Z,556
2022-10-01T14:14:08.158Z,558
2022-10-01T14:19:26.356Z,567
2022-10-01T14:24:44.863Z,583
2022-10-01T14:30:03.361Z,581
2022-10-01T14:35:22.087Z,591
2022-10-01T14:40:40.299Z,595
2022-10-01T14:45:58.835Z,598
2022-10-01T14:51:17.490Z,600
2022-10-01T14:56:35.979Z,607
2022-10-01T15:01:54.884Z,598
2022-10-01T15:06:57.706Z,600
2022-10-01T15:12:16.182Z,638
2022-10-01T15:17:34.724Z,645
2022-10-01T15:22:53.252Z,643
2022-10-01T15:28:19.355Z,608
2022-10-01T15:33:37.484Z,609
2022-10-01T15:38:56.211Z,658
2022-10-01T15:44:14.692Z,655
2022-10-01T15:49:33.494Z,623
2022-10-01T15:54:51.956Z,612
2022-10-01T16:00:10.168Z,616
2022-10-01T16:05:28.934Z,619
2022-10-01T16:10:47.403Z,610
2022-10-01T16:16:05.925Z,613
2022-10-01T16:21:24.434Z,636
2022-10-01T16:26:42.313Z,674
2022-10-01T16:32:00.559Z,645
2022-10-01T16:37:19.195Z,650
2022-10-01T16:42:37.418Z,639
2022-10-01T16:47:56.182Z,616
2022-10-01T16:53:14.682Z,610
2022-10-01T16:58:38.984Z,605
2022-10-01T17:03:57.453Z,609
2022-10-01T17:09:15.965Z,621
2022-10-01T17:14:33.848Z,621
2022-10-01T17:19:52.617Z,602
2022-10-01T17:25:11.094Z,604
2022-10-01T17:30:29.531Z,591
2022-10-01T17:35:48.271Z,589
2022-10-01T17:41:06.782Z,618
2022-10-01T17:46:25.336Z,628
2022-10-01T17:51:43.937Z,663
2022-10-01T17:57:02.130Z,708
2022-10-01T18:02:40.214Z,744
2022-10-01T18:08:01.402Z,824
2022-10-01T18:13:19.913Z,852
2022-10-01T18:25:12.373Z,859
2022-10-01T18:30:31.177Z,860
2022-10-01T18:35:49.624Z,861
2022-10-01T18:41:08.495Z,864
2022-10-01T18:46:27.278Z,866
2022-10-01T18:51:45.741Z,866
2022-10-01T18:57:04.235Z,879
2022-10-01T19:02:23.058Z,880
2022-10-01T19:07:41.505Z,877
2022-10-01T19:12:59.734Z,887
2022-10-01T19:18:18.205Z,899
2022-10-01T19:23:36.397Z,904
2022-10-01T19:28:55.178Z,912
2022-10-01T19:34:13.385Z,918
2022-10-01T19:39:31.733Z,918
2022-10-01T19:44:50.184Z,903
2022-10-01T19:50:08.689Z,902
2022-10-01T19:55:27.205Z,858
2022-10-01T20:00:45.430Z,888
2022-10-01T20:06:03.748Z,859
2022-10-01T20:11:22.198Z,866
2022-10-01T20:16:40.836Z,920
2022-10-01T20:21:59.404Z,972
2022-10-01T20:27:17.853Z,992
2022-10-01T20:32:36.333Z,1007
2022-10-01T20:37:55.092Z,1012
2022-10-01T20:43:13.269Z,1070
2022-10-01T20:48:32.036Z,1115
2022-10-01T20:53:50.546Z,1151
2022-10-01T20:59:08.487Z,1194
2022-10-01T21:04:26.675Z,1217
2022-10-01T21:09:45.492Z,1241
2022-10-01T21:15:04.229Z,1267
2022-10-01T21:20:22.723Z,1285
2022-10-01T21:25:41.510Z,1307
2022-10-01T21:30:59.729Z,1321
2022-10-01T21:36:18.487Z,1328
2022-10-01T21:41:36.993Z,1351
2022-10-01T21:46:55.613Z,1375
2022-10-01T21:52:14.356Z,1389
2022-10-01T21:57:32.862Z,1406
2022-10-01T22:02:51.351Z,1408
2022-10-01T22:08:10.124Z,1427
2022-10-01T22:13:28.917Z,1442
2022-10-01T22:18:47.394Z,1451
2022-10-01T22:24:05.874Z,1495
2022-10-01T22:29:24.741Z,1550
2022-10-01T22:34:42.920Z,1510
2022-10-01T22:40:01.685Z,1497
2022-10-01T22:45:19.948Z,1507
2022-10-01T22:50:38.683Z,1521
2022-10-01T22:55:57.194Z,1518
2022-10-01T23:01:15.748Z,1524
2022-10-01T23:06:34.340Z,1531
2022-10-01T23:11:53.578Z,1526
2022-10-01T23:17:11.816Z,1536
2022-10-01T23:22:30.006Z,1538
2022-10-01T23:27:48.807Z,1543
2022-10-01T23:33:07.049Z,1549
2022-10-01T23:38:24.991Z,1544
2022-10-01T23:43:43.461Z,1541
2022-10-01T23:49:05.308Z,1539
2022-10-01T23:54:23.752Z,1545
2022-10-01T23:59:42.535Z,1550
